Portada
METAR-TAF:

METAR-TAF

Aeroports :

Khurramabad, Iran

latitud: 33-26-11N, longitud: 048-17-09E, altitud: 1155 m

Observació

L'informe es va fer fa 1 hora i 0 minuts, a les 04:00 UTC
Vent calma
Temperatura 3°C
Humitat 100%
Pressió 1019 hPa
Visibilitat: 6000 m
Escasses núvols a una alçada de 4500 ft

METAR: OICK 210400Z 00000KT 6000 FEW045 03/03 Q1019

Hora: 08:30 (05:00 UTC)


TAF: manca

Observacions i pronòstics meteorològics de més de 4000 aeroports (METAR i TAF).

Les estacions disponibles són els punts grocs i vermells al mapa.

Posi el ratolí al punt desitjat per veure el nom de l'estació.

Feu clic per veure les observacions i els pronòstics meteorològics.

Per canviar el mapa: feu clic els botons verds amb una creu de color negre per apropar; al botó verd amb un guió per allunyar la imatge; o en les fletxes verdes per a mapes adjacents.


METAR-TAF: